sensor_id;sensor_type;location;lat;lon;timestamp;pressure;altitude;pressure_sealevel;temperature;humidity
69306;BME280;56427;51.580;4.656;2024-02-14T00:01:05;101402.31;;;8.55;100.00
69306;BME280;56427;51.580;4.656;2024-02-14T00:03:32;101393.63;;;8.57;100.00
69306;BME280;56427;51.580;4.656;2024-02-14T00:05:58;101391.03;;;8.57;100.00
69306;BME280;56427;51.580;4.656;2024-02-14T00:08:23;101384.88;;;8.61;100.00
69306;BME280;56427;51.580;4.656;2024-02-14T00:10:48;101385.66;;;8.63;100.00
69306;BME280;56427;51.580;4.656;2024-02-14T00:13:14;101367.63;;;8.62;100.00
69306;BME280;56427;51.580;4.656;2024-02-14T00:15:40;101370.09;;;8.65;100.00
69306;BME280;56427;51.580;4.656;2024-02-14T00:18:06;101393.44;;;8.63;100.00
69306;BME280;56427;51.580;4.656;2024-02-14T00:20:31;101377.00;;;8.64;100.00
69306;BME280;56427;51.580;4.656;2024-02-14T00:22:57;101377.06;;;8.63;100.00
69306;BME280;56427;51.580;4.656;2024-02-14T00:25:23;101365.75;;;8.65;100.00
69306;BME280;56427;51.580;4.656;2024-02-14T00:27:48;101366.66;;;8.64;100.00
69306;BME280;56427;51.580;4.656;2024-02-14T00:30:14;101367.50;;;8.65;100.00
69306;BME280;56427;51.580;4.656;2024-02-14T00:32:40;101364.84;;;8.68;100.00
69306;BME280;56427;51.580;4.656;2024-02-14T00:35:05;101358.81;;;8.68;100.00
69306;BME280;56427;51.580;4.656;2024-02-14T00:37:31;101353.59;;;8.69;100.00
69306;BME280;56427;51.580;4.656;2024-02-14T00:39:58;101359.56;;;8.71;100.00
69306;BME280;56427;51.580;4.656;2024-02-14T00:42:24;101366.34;;;8.75;100.00
69306;BME280;56427;51.580;4.656;2024-02-14T00:44:49;101360.19;;;8.78;100.00
69306;BME280;56427;51.580;4.656;2024-02-14T00:47:14;101370.47;;;8.81;100.00
69306;BME280;56427;51.580;4.656;2024-02-14T00:49:40;101362.00;;;8.76;100.00
69306;BME280;56427;51.580;4.656;2024-02-14T00:52:05;101356.84;;;8.76;100.00
69306;BME280;56427;51.580;4.656;2024-02-14T00:54:31;101371.41;;;8.78;100.00
69306;BME280;56427;51.580;4.656;2024-02-14T00:56:57;101355.94;;;8.77;100.00
69306;BME280;56427;51.580;4.656;2024-02-14T00:59:22;101363.50;;;8.83;100.00
69306;BME280;56427;51.580;4.656;2024-02-14T01:01:47;101364.19;;;8.88;100.00
69306;BME280;56427;51.580;4.656;2024-02-14T01:04:13;101358.97;;;8.89;100.00
69306;BME280;56427;51.580;4.656;2024-02-14T01:06:38;101364.91;;;8.93;100.00
69306;BME280;56427;51.580;4.656;2024-02-14T01:09:03;101363.25;;;8.90;100.00
69306;BME280;56427;51.580;4.656;2024-02-14T01:11:29;101377.00;;;8.91;100.00
69306;BME280;56427;51.580;4.656;2024-02-14T01:13:55;101371.69;;;8.96;100.00
69306;BME280;56427;51.580;4.656;2024-02-14T01:16:20;101381.09;;;8.98;100.00
69306;BME280;56427;51.580;4.656;2024-02-14T01:18:45;101379.22;;;9.03;100.00
69306;BME280;56427;51.580;4.656;2024-02-14T01:21:12;101395.69;;;9.01;100.00
69306;BME280;56427;51.580;4.656;2024-02-14T01:23:37;101387.03;;;9.02;100.00
69306;BME280;56427;51.580;4.656;2024-02-14T01:26:03;101391.34;;;9.01;100.00
69306;BME280;56427;51.580;4.656;2024-02-14T01:28:28;101395.56;;;9.05;100.00
69306;BME280;56427;51.580;4.656;2024-02-14T01:30:54;101388.78;;;9.01;100.00
69306;BME280;56427;51.580;4.656;2024-02-14T01:33:21;101394.69;;;9.05;100.00
69306;BME280;56427;51.580;4.656;2024-02-14T01:35:46;101393.69;;;9.09;100.00
69306;BME280;56427;51.580;4.656;2024-02-14T01:38:12;101396.28;;;9.09;100.00
69306;BME280;56427;51.580;4.656;2024-02-14T01:40:38;101397.13;;;9.09;100.00
69306;BME280;56427;51.580;4.656;2024-02-14T01:43:03;101394.53;;;9.09;100.00
69306;BME280;56427;51.580;4.656;2024-02-14T01:45:29;101398.06;;;9.07;100.00
69306;BME280;56427;51.580;4.656;2024-02-14T01:47:54;101396.41;;;9.04;100.00
69306;BME280;56427;51.580;4.656;2024-02-14T01:50:21;101399.00;;;9.04;100.00
69306;BME280;56427;51.580;4.656;2024-02-14T01:52:54;101388.63;;;9.06;100.00
69306;BME280;56427;51.580;4.656;2024-02-14T01:55:21;101391.22;;;9.06;100.00
69306;BME280;56427;51.580;4.656;2024-02-14T01:57:47;101386.97;;;9.03;100.00
69306;BME280;56427;51.580;4.656;2024-02-14T02:00:14;101399.13;;;9.01;100.00
69306;BME280;56427;51.580;4.656;2024-02-14T02:02:43;101389.63;;;9.02;100.00
69306;BME280;56427;51.580;4.656;2024-02-14T02:05:09;101402.59;;;9.00;100.00
69306;BME280;56427;51.580;4.656;2024-02-14T02:07:35;101396.59;;;9.00;100.00
69306;BME280;56427;51.580;4.656;2024-02-14T02:10:01;101399.06;;;9.03;100.00
69306;BME280;56427;51.580;4.656;2024-02-14T02:12:27;101389.56;;;9.03;100.00
69306;BME280;56427;51.580;4.656;2024-02-14T02:14:53;101384.50;;;9.00;100.00
69306;BME280;56427;51.580;4.656;2024-02-14T02:17:19;101391.31;;;9.03;100.00
69306;BME280;56427;51.580;4.656;2024-02-14T02:19:44;101391.34;;;9.01;100.00
69306;BME280;56427;51.580;4.656;2024-02-14T02:22:09;101396.41;;;9.06;100.00
69306;BME280;56427;51.580;4.656;2024-02-14T02:24:35;101393.81;;;9.04;100.00
69306;BME280;56427;51.580;4.656;2024-02-14T02:27:03;101398.97;;;9.06;100.00
69306;BME280;56427;51.580;4.656;2024-02-14T02:29:28;101397.22;;;9.06;100.00
69306;BME280;56427;51.580;4.656;2024-02-14T02:31:54;101392.00;;;9.08;100.00
69306;BME280;56427;51.580;4.656;2024-02-14T02:34:19;101402.28;;;9.09;100.00
69306;BME280;56427;51.580;4.656;2024-02-14T02:36:44;101400.56;;;9.10;100.00
69306;BME280;56427;51.580;4.656;2024-02-14T02:39:12;101399.56;;;9.14;100.00
69306;BME280;56427;51.580;4.656;2024-02-14T02:41:37;101401.19;;;9.16;100.00
69306;BME280;56427;51.580;4.656;2024-02-14T02:44:03;101412.38;;;9.18;100.00
69306;BME280;56427;51.580;4.656;2024-02-14T02:46:31;101413.94;;;9.23;100.00
69306;BME280;56427;51.580;4.656;2024-02-14T02:48:56;101412.16;;;9.25;100.00
69306;BME280;56427;51.580;4.656;2024-02-14T02:51:23;101406.97;;;9.25;100.00
69306;BME280;56427;51.580;4.656;2024-02-14T02:53:49;101411.25;;;9.26;100.00
69306;BME280;56427;51.580;4.656;2024-02-14T02:56:14;101406.09;;;9.26;100.00
69306;BME280;56427;51.580;4.656;2024-02-14T02:58:40;101410.25;;;9.30;100.00
69306;BME280;56427;51.580;4.656;2024-02-14T03:01:08;101411.94;;;9.31;100.00
69306;BME280;56427;51.580;4.656;2024-02-14T03:03:34;101414.38;;;9.35;100.00
69306;BME280;56427;51.580;4.656;2024-02-14T03:06:03;101416.75;;;9.41;100.00
69306;BME280;56427;51.580;4.656;2024-02-14T03:08:28;101418.50;;;9.41;100.00
69306;BME280;56427;51.580;4.656;2024-02-14T03:11:01;101408.94;;;9.43;100.00
69306;BME280;56427;51.580;4.656;2024-02-14T03:13:27;101413.94;;;9.48;100.00
69306;BME280;56427;51.580;4.656;2024-02-14T03:15:53;101416.53;;;9.48;100.00
69306;BME280;56427;51.580;4.656;2024-02-14T03:18:18;101416.41;;;9.52;100.00
69306;BME280;56427;51.580;4.656;2024-02-14T03:20:44;101412.00;;;9.54;100.00
69306;BME280;56427;51.580;4.656;2024-02-14T03:23:10;101420.56;;;9.56;100.00
69306;BME280;56427;51.580;4.656;2024-02-14T03:25:35;101428.28;;;9.58;100.00
69306;BME280;56427;51.580;4.656;2024-02-14T03:28:02;101434.16;;;9.63;100.00
69306;BME280;56427;51.580;4.656;2024-02-14T03:30:30;101423.75;;;9.64;100.00
69306;BME280;56427;51.580;4.656;2024-02-14T03:32:56;101427.97;;;9.67;100.00
69306;BME280;56427;51.580;4.656;2024-02-14T03:35:21;101428.78;;;9.69;100.00
69306;BME280;56427;51.580;4.656;2024-02-14T03:37:47;101427.81;;;9.71;100.00
69306;BME280;56427;51.580;4.656;2024-02-14T03:40:13;101438.09;;;9.73;100.00
69306;BME280;56427;51.580;4.656;2024-02-14T03:42:39;101433.75;;;9.75;100.00
69306;BME280;56427;51.580;4.656;2024-02-14T03:45:08;101421.50;;;9.79;100.00
69306;BME280;56427;51.580;4.656;2024-02-14T03:47:34;101430.88;;;9.83;100.00
69306;BME280;56427;51.580;4.656;2024-02-14T03:49:59;101427.50;;;9.81;100.00
69306;BME280;56427;51.580;4.656;2024-02-14T03:52:25;101430.94;;;9.81;100.00
69306;BME280;56427;51.580;4.656;2024-02-14T03:54:51;101430.13;;;9.79;100.00
69306;BME280;56427;51.580;4.656;2024-02-14T03:57:17;101438.84;;;9.77;100.00
69306;BME280;56427;51.580;4.656;2024-02-14T03:59:46;101428.44;;;9.78;100.00
69306;BME280;56427;51.580;4.656;2024-02-14T04:02:11;101442.22;;;9.79;100.00
69306;BME280;56427;51.580;4.656;2024-02-14T04:04:37;101441.38;;;9.78;100.00
69306;BME280;56427;51.580;4.656;2024-02-14T04:07:03;101442.22;;;9.79;100.00
69306;BME280;56427;51.580;4.656;2024-02-14T04:09:29;101451.81;;;9.77;100.00
69306;BME280;56427;51.580;4.656;2024-02-14T04:11:54;101451.81;;;9.77;100.00
69306;BME280;56427;51.580;4.656;2024-02-14T04:14:20;101453.50;;;9.78;100.00
69306;BME280;56427;51.580;4.656;2024-02-14T04:16:46;101451.81;;;9.77;100.00
69306;BME280;56427;51.580;4.656;2024-02-14T04:19:11;101444.94;;;9.76;100.00
69306;BME280;56427;51.580;4.656;2024-02-14T04:21:38;101450.13;;;9.76;100.00
69306;BME280;56427;51.580;4.656;2024-02-14T04:24:06;101445.78;;;9.76;100.00
69306;BME280;56427;51.580;4.656;2024-02-14T04:26:33;101455.25;;;9.77;100.00
69306;BME280;56427;51.580;4.656;2024-02-14T04:28:59;101454.28;;;9.80;100.00
69306;BME280;56427;51.580;4.656;2024-02-14T04:31:25;101452.53;;;9.80;100.00
69306;BME280;56427;51.580;4.656;2024-02-14T04:33:52;101462.88;;;9.82;100.00
69306;BME280;56427;51.580;4.656;2024-02-14T04:36:19;101462.03;;;9.81;100.00
69306;BME280;56427;51.580;4.656;2024-02-14T04:38:47;101465.50;;;9.80;100.00
69306;BME280;56427;51.580;4.656;2024-02-14T04:41:13;101461.19;;;9.81;100.00
69306;BME280;56427;51.580;4.656;2024-02-14T04:43:39;101465.69;;;9.74;100.00
69306;BME280;56427;51.580;4.656;2024-02-14T04:46:05;101455.53;;;9.69;100.00
69306;BME280;56427;51.580;4.656;2024-02-14T04:48:35;101464.97;;;9.70;100.00
69306;BME280;56427;51.580;4.656;2024-02-14T04:51:02;101464.19;;;9.68;100.00
69306;BME280;56427;51.580;4.656;2024-02-14T04:53:28;101469.53;;;9.64;100.00
69306;BME280;56427;51.580;4.656;2024-02-14T04:55:53;101461.84;;;9.61;100.00
69306;BME280;56427;51.580;4.656;2024-02-14T04:58:19;101471.47;;;9.57;100.00
69306;BME280;56427;51.580;4.656;2024-02-14T05:00:45;101465.41;;;9.58;100.00
69306;BME280;56427;51.580;4.656;2024-02-14T05:03:10;101478.34;;;9.58;100.00
69306;BME280;56427;51.580;4.656;2024-02-14T05:05:36;101466.38;;;9.54;100.00
69306;BME280;56427;51.580;4.656;2024-02-14T05:08:01;101473.38;;;9.52;100.00
69306;BME280;56427;51.580;4.656;2024-02-14T05:10:30;101470.78;;;9.52;100.00
69306;BME280;56427;51.580;4.656;2024-02-14T05:12:56;101471.69;;;9.51;100.00
69306;BME280;56427;51.580;4.656;2024-02-14T05:15:22;101473.50;;;9.49;100.00
69306;BME280;56427;51.580;4.656;2024-02-14T05:17:47;101468.31;;;9.49;100.00
69306;BME280;56427;51.580;4.656;2024-02-14T05:20:14;101470.09;;;9.47;100.00
69306;BME280;56427;51.580;4.656;2024-02-14T05:22:39;101474.34;;;9.50;100.00
69306;BME280;56427;51.580;4.656;2024-02-14T05:25:05;101478.66;;;9.49;100.00
69306;BME280;56427;51.580;4.656;2024-02-14T05:27:33;101472.59;;;9.50;100.00
69306;BME280;56427;51.580;4.656;2024-02-14T05:29:58;101477.75;;;9.50;100.00
69306;BME280;56427;51.580;4.656;2024-02-14T05:32:24;101473.50;;;9.49;100.00
69306;BME280;56427;51.580;4.656;2024-02-14T05:34:50;101481.25;;;9.49;100.00
69306;BME280;56427;51.580;4.656;2024-02-14T05:37:16;101478.56;;;9.52;100.00
69306;BME280;56427;51.580;4.656;2024-02-14T05:39:41;101471.69;;;9.51;100.00
69306;BME280;56427;51.580;4.656;2024-02-14T05:42:07;101467.22;;;9.55;100.00
69306;BME280;56427;51.580;4.656;2024-02-14T05:44:32;101462.06;;;9.55;100.00
69306;BME280;56427;51.580;4.656;2024-02-14T05:46:58;101469.78;;;9.56;100.00
69306;BME280;56427;51.580;4.656;2024-02-14T05:49:23;101467.13;;;9.58;100.00
69306;BME280;56427;51.580;4.656;2024-02-14T05:51:49;101469.66;;;9.59;100.00
69306;BME280;56427;51.580;4.656;2024-02-14T05:54:16;101474.78;;;9.61;100.00
69306;BME280;56427;51.580;4.656;2024-02-14T05:56:41;101475.63;;;9.61;100.00
69306;BME280;56427;51.580;4.656;2024-02-14T05:59:07;101467.88;;;9.61;100.00
69306;BME280;56427;51.580;4.656;2024-02-14T06:01:33;101469.59;;;9.62;100.00
69306;BME280;56427;51.580;4.656;2024-02-14T06:03:59;101476.34;;;9.66;100.00
69306;BME280;56427;51.580;4.656;2024-02-14T06:06:24;101483.19;;;9.69;100.00
69306;BME280;56427;51.580;4.656;2024-02-14T06:08:50;101477.94;;;9.70;100.00
69306;BME280;56427;51.580;4.656;2024-02-14T06:11:15;101485.66;;;9.72;100.00
69306;BME280;56427;51.580;4.656;2024-02-14T06:13:41;101485.56;;;9.75;100.00
69306;BME280;56427;51.580;4.656;2024-02-14T06:16:07;101484.53;;;9.79;100.00
69306;BME280;56427;51.580;4.656;2024-02-14T06:18:34;101495.72;;;9.81;100.00
69306;BME280;56427;51.580;4.656;2024-02-14T06:21:00;101503.47;;;9.81;100.00
69306;BME280;56427;51.580;4.656;2024-02-14T06:23:25;101499.94;;;9.84;100.00
69306;BME280;56427;51.580;4.656;2024-02-14T06:25:50;101506.81;;;9.85;100.00
69306;BME280;56427;51.580;4.656;2024-02-14T06:28:16;101506.72;;;9.88;100.00
69306;BME280;56427;51.580;4.656;2024-02-14T06:30:41;101502.38;;;9.88;100.00
69306;BME280;56427;51.580;4.656;2024-02-14T06:33:07;101506.72;;;9.88;100.00
69306;BME280;56427;51.580;4.656;2024-02-14T06:35:32;101506.72;;;9.88;100.00
69306;BME280;56427;51.580;4.656;2024-02-14T06:37:57;101511.00;;;9.89;100.00
69306;BME280;56427;51.580;4.656;2024-02-14T06:40:23;101509.31;;;9.88;100.00
69306;BME280;56427;51.580;4.656;2024-02-14T06:42:48;101511.06;;;9.86;100.00
69306;BME280;56427;51.580;4.656;2024-02-14T06:45:16;101515.38;;;9.87;100.00
69306;BME280;56427;51.580;4.656;2024-02-14T06:47:41;101505.91;;;9.86;100.00
69306;BME280;56427;51.580;4.656;2024-02-14T06:50:07;101510.22;;;9.87;100.00
69306;BME280;56427;51.580;4.656;2024-02-14T06:52:33;101519.66;;;9.88;100.00
69306;BME280;56427;51.580;4.656;2024-02-14T06:54:58;101511.91;;;9.86;100.00
69306;BME280;56427;51.580;4.656;2024-02-14T06:57:26;101511.84;;;9.89;100.00
69306;BME280;56427;51.580;4.656;2024-02-14T06:59:51;101510.94;;;9.90;100.00
69306;BME280;56427;51.580;4.656;2024-02-14T07:02:16;101513.53;;;9.90;100.00
69306;BME280;56427;51.580;4.656;2024-02-14T07:04:42;101517.75;;;9.93;100.00
69306;BME280;56427;51.580;4.656;2024-02-14T07:07:07;101520.25;;;9.96;100.00
69306;BME280;56427;51.580;4.656;2024-02-14T07:09:33;101522.91;;;9.94;100.00
69306;BME280;56427;51.580;4.656;2024-02-14T07:12:01;101527.16;;;9.95;100.00
69306;BME280;56427;51.580;4.656;2024-02-14T07:14:26;101526.19;;;9.99;100.00
69306;BME280;56427;51.580;4.656;2024-02-14T07:16:51;101529.75;;;9.95;100.00
69306;BME280;56427;51.580;4.656;2024-02-14T07:19:17;101522.78;;;9.97;100.00
69306;BME280;56427;51.580;4.656;2024-02-14T07:21:43;101533.03;;;10.00;100.00
69306;BME280;56427;51.580;4.656;2024-02-14T07:24:09;101536.47;;;10.01;100.00
69306;BME280;56427;51.580;4.656;2024-02-14T07:26:34;101533.84;;;10.03;100.00
69306;BME280;56427;51.580;4.656;2024-02-14T07:29:00;101521.63;;;10.06;100.00
69306;BME280;56427;51.580;4.656;2024-02-14T07:31:29;101530.25;;;10.07;100.00
69306;BME280;56427;51.580;4.656;2024-02-14T07:34:00;101531.03;;;10.09;100.00
69306;BME280;56427;51.580;4.656;2024-02-14T07:36:25;101534.47;;;10.09;100.00
69306;BME280;56427;51.580;4.656;2024-02-14T07:38:51;101538.66;;;10.13;100.00
69306;BME280;56427;51.580;4.656;2024-02-14T07:41:16;101538.59;;;10.15;100.00
69306;BME280;56427;51.580;4.656;2024-02-14T07:43:41;101534.16;;;10.18;100.00
69306;BME280;56427;51.580;4.656;2024-02-14T07:46:07;101539.28;;;10.20;100.00
69306;BME280;56427;51.580;4.656;2024-02-14T07:48:33;101543.50;;;10.22;100.00
69306;BME280;56427;51.580;4.656;2024-02-14T07:50:58;101540.97;;;10.21;100.00
69306;BME280;56427;51.580;4.656;2024-02-14T07:53:26;101546.94;;;10.24;100.00
69306;BME280;56427;51.580;4.656;2024-02-14T07:55:51;101540.72;;;10.29;100.00
69306;BME280;56427;51.580;4.656;2024-02-14T07:58:18;101552.84;;;10.28;100.00
69306;BME280;56427;51.580;4.656;2024-02-14T08:00:43;101552.91;;;10.26;100.00
69306;BME280;56427;51.580;4.656;2024-02-14T08:03:09;101557.06;;;10.31;100.00
69306;BME280;56427;51.580;4.656;2024-02-14T08:05:34;101547.66;;;10.28;100.00
69306;BME280;56427;51.580;4.656;2024-02-14T08:07:59;101554.47;;;10.31;100.00
69306;BME280;56427;51.580;4.656;2024-02-14T08:10:25;101560.41;;;10.34;100.00
69306;BME280;56427;51.580;4.656;2024-02-14T08:12:50;101557.72;;;10.37;100.00
69306;BME280;56427;51.580;4.656;2024-02-14T08:15:15;101555.13;;;10.37;100.00
69306;BME280;56427;51.580;4.656;2024-02-14T08:17:41;101556.75;;;10.40;100.00
69306;BME280;56427;51.580;4.656;2024-02-14T08:20:07;101572.16;;;10.44;100.00
69306;BME280;56427;51.580;4.656;2024-02-14T08:22:32;101566.13;;;10.44;100.00
69306;BME280;56427;51.580;4.656;2024-02-14T08:24:58;101566.06;;;10.45;100.00
69306;BME280;56427;51.580;4.656;2024-02-14T08:27:24;101563.31;;;10.50;100.00
69306;BME280;56427;51.580;4.656;2024-02-14T08:29:51;101567.69;;;10.48;100.00
69306;BME280;56427;51.580;4.656;2024-02-14T08:32:16;101577.91;;;10.52;100.00
69306;BME280;56427;51.580;4.656;2024-02-14T08:34:41;101578.69;;;10.54;100.00
69306;BME280;56427;51.580;4.656;2024-02-14T08:37:07;101571.66;;;10.58;100.00
69306;BME280;56427;51.580;4.656;2024-02-14T08:39:33;101569.06;;;10.58;100.00
69306;BME280;56427;51.580;4.656;2024-02-14T08:41:59;101568.94;;;10.61;100.00
69306;BME280;56427;51.580;4.656;2024-02-14T08:44:27;101576.50;;;10.67;100.00
69306;BME280;56427;51.580;4.656;2024-02-14T08:46:52;101569.63;;;10.66;100.00
69306;BME280;56427;51.580;4.656;2024-02-14T08:49:18;101573.88;;;10.69;100.00
69306;BME280;56427;51.580;4.656;2024-02-14T08:51:43;101575.59;;;10.68;100.00
69306;BME280;56427;51.580;4.656;2024-02-14T08:54:11;101578.09;;;10.71;100.00
69306;BME280;56427;51.580;4.656;2024-02-14T08:56:37;101583.28;;;10.71;100.00
69306;BME280;56427;51.580;4.656;2024-02-14T08:59:03;101597.03;;;10.73;100.00
69306;BME280;56427;51.580;4.656;2024-02-14T09:01:31;101597.88;;;10.74;100.00
69306;BME280;56427;51.580;4.656;2024-02-14T09:03:57;101612.44;;;10.78;100.00
69306;BME280;56427;51.580;4.656;2024-02-14T09:06:24;101603.66;;;10.82;100.00
69306;BME280;56427;51.580;4.656;2024-02-14T09:08:50;101605.13;;;10.89;100.00
69306;BME280;56427;51.580;4.656;2024-02-14T09:11:16;101596.34;;;10.92;100.00
69306;BME280;56427;51.580;4.656;2024-02-14T09:13:42;101592.63;;;10.99;100.00
69306;BME280;56427;51.580;4.656;2024-02-14T09:16:13;101589.03;;;11.03;100.00
69306;BME280;56427;51.580;4.656;2024-02-14T09:18:40;101593.19;;;11.07;100.00
69306;BME280;56427;51.580;4.656;2024-02-14T09:21:05;101603.75;;;11.02;100.00
69306;BME280;56427;51.580;4.656;2024-02-14T09:23:31;101603.91;;;10.98;100.00
69306;BME280;56427;51.580;4.656;2024-02-14T09:25:58;101608.34;;;10.96;100.00
69306;BME280;56427;51.580;4.656;2024-02-14T09:28:23;101607.34;;;10.98;100.00
69306;BME280;56427;51.580;4.656;2024-02-14T09:30:50;101597.81;;;10.99;100.00
69306;BME280;56427;51.580;4.656;2024-02-14T09:33:15;101604.59;;;11.03;100.00
69306;BME280;56427;51.580;4.656;2024-02-14T09:35:42;101607.25;;;11.01;100.00
69306;BME280;56427;51.580;4.656;2024-02-14T09:38:13;101608.72;;;11.08;100.00
69306;BME280;56427;51.580;4.656;2024-02-14T09:40:42;101598.16;;;11.13;100.00
69306;BME280;56427;51.580;4.656;2024-02-14T09:45:50;101604.00;;;11.18;100.00
69306;BME280;56427;51.580;4.656;2024-02-14T09:48:18;101602.91;;;11.24;100.00
69306;BME280;56427;51.580;4.656;2024-02-14T09:50:44;101602.00;;;11.25;100.00
69306;BME280;56427;51.580;4.656;2024-02-14T09:53:11;101608.25;;;11.21;100.00
69306;BME280;56427;51.580;4.656;2024-02-14T09:55:37;101603.06;;;11.21;100.00
69306;BME280;56427;51.580;4.656;2024-02-14T09:58:05;101610.69;;;11.25;100.00
69306;BME280;56427;51.580;4.656;2024-02-14T10:00:32;101609.69;;;11.28;100.00
69306;BME280;56427;51.580;4.656;2024-02-14T10:02:58;101607.22;;;11.25;100.00
69306;BME280;56427;51.580;4.656;2024-02-14T10:05:24;101607.94;;;11.28;100.00
69306;BME280;56427;51.580;4.656;2024-02-14T10:07:50;101612.31;;;11.28;100.00
69306;BME280;56427;51.580;4.656;2024-02-14T10:10:15;101616.66;;;11.27;100.00
69306;BME280;56427;51.580;4.656;2024-02-14T10:12:42;101616.72;;;11.26;100.00
69306;BME280;56427;51.580;4.656;2024-02-14T10:15:08;101611.63;;;11.23;100.00
69306;BME280;56427;51.580;4.656;2024-02-14T10:17:33;101613.91;;;11.30;100.00
69306;BME280;56427;51.580;4.656;2024-02-14T10:20:01;101620.09;;;11.28;100.00
69306;BME280;56427;51.580;4.656;2024-02-14T10:22:37;101628.00;;;11.25;100.00
69306;BME280;56427;51.580;4.656;2024-02-14T10:25:06;101619.34;;;11.24;100.00
69306;BME280;56427;51.580;4.656;2024-02-14T10:27:40;101615.19;;;11.20;100.00
69306;BME280;56427;51.580;4.656;2024-02-14T10:30:07;101623.03;;;11.19;100.00
69306;BME280;56427;51.580;4.656;2024-02-14T10:32:36;101631.56;;;11.22;100.00
69306;BME280;56427;51.580;4.656;2024-02-14T10:35:04;101621.16;;;11.22;100.00
69306;BME280;56427;51.580;4.656;2024-02-14T10:37:34;101620.25;;;11.23;100.00
69306;BME280;56427;51.580;4.656;2024-02-14T10:40:01;101626.38;;;11.22;100.00
69306;BME280;56427;51.580;4.656;2024-02-14T10:42:28;101619.34;;;11.24;100.00
69306;BME280;56427;51.580;4.656;2024-02-14T10:44:54;101616.50;;;11.30;100.00
69306;BME280;56427;51.580;4.656;2024-02-14T10:47:20;101631.22;;;11.31;100.00
69306;BME280;56427;51.580;4.656;2024-02-14T10:49:50;101622.56;;;11.31;100.00
69306;BME280;56427;51.580;4.656;2024-02-14T10:52:20;101624.31;;;11.30;100.00
69306;BME280;56427;51.580;4.656;2024-02-14T10:54:52;101625.22;;;11.29;100.00
69306;BME280;56427;51.580;4.656;2024-02-14T10:57:24;101619.94;;;11.32;100.00
69306;BME280;56427;51.580;4.656;2024-02-14T10:59:49;101619.97;;;11.31;100.00
69306;BME280;56427;51.580;4.656;2024-02-14T11:02:15;101616.47;;;11.32;100.00
69306;BME280;56427;51.580;4.656;2024-02-14T11:04:41;101621.78;;;11.29;100.00
69306;BME280;56427;51.580;4.656;2024-02-14T11:07:10;101615.50;;;11.34;100.00
69306;BME280;56427;51.580;4.656;2024-02-14T11:09:36;101613.03;;;11.31;100.00
69306;BME280;56427;51.580;4.656;2024-02-14T11:12:02;101621.69;;;11.32;100.00
69306;BME280;56427;51.580;4.656;2024-02-14T11:14:32;101596.53;;;11.32;100.00
69306;BME280;56427;51.580;4.656;2024-02-14T11:17:02;101603.66;;;11.27;100.00
69306;BME280;56427;51.580;4.656;2024-02-14T11:19:33;101601.91;;;11.28;100.00
69306;BME280;56427;51.580;4.656;2024-02-14T11:22:13;101606.56;;;11.20;100.00
69306;BME280;56427;51.580;4.656;2024-02-14T11:24:45;101604.00;;;11.18;100.00
69306;BME280;56427;51.580;4.656;2024-02-14T11:27:11;101607.03;;;11.29;100.00
69306;BME280;56427;51.580;4.656;2024-02-14T11:29:39;101607.03;;;11.29;100.00
69306;BME280;56427;51.580;4.656;2024-02-14T11:32:06;101601.91;;;11.28;100.00
69306;BME280;56427;51.580;4.656;2024-02-14T11:34:34;101600.91;;;11.32;100.00
69306;BME280;56427;51.580;4.656;2024-02-14T11:36:59;101595.81;;;11.29;100.00
69306;BME280;56427;51.580;4.656;2024-02-14T11:39:26;101596.47;;;11.34;100.00
69306;BME280;56427;51.580;4.656;2024-02-14T11:41:51;101593.13;;;11.30;100.00
69306;BME280;56427;51.580;4.656;2024-02-14T11:44:19;101600.06;;;11.31;100.00
69306;BME280;56427;51.580;4.656;2024-02-14T11:46:47;101600.16;;;11.28;100.00
69306;BME280;56427;51.580;4.656;2024-02-14T11:49:12;101595.81;;;11.29;100.00
69306;BME280;56427;51.580;4.656;2024-02-14T11:51:38;101587.06;;;11.31;100.00
69306;BME280;56427;51.580;4.656;2024-02-14T11:54:05;101595.75;;;11.30;100.00
69306;BME280;56427;51.580;4.656;2024-02-14T11:56:32;101598.22;;;11.33;100.00
69306;BME280;56427;51.580;4.656;2024-02-14T11:59:02;101592.91;;;11.37;100.00
69306;BME280;56427;51.580;4.656;2024-02-14T12:01:31;101596.06;;;11.45;100.00
69306;BME280;56427;51.580;4.656;2024-02-14T12:03:59;101595.09;;;11.47;100.00
69306;BME280;56427;51.580;4.656;2024-02-14T12:06:27;101578.59;;;11.48;100.00
69306;BME280;56427;51.580;4.656;2024-02-14T12:08:54;101574.06;;;11.53;100.00
69306;BME280;56427;51.580;4.656;2024-02-14T12:11:19;101586.88;;;11.58;100.00
69306;BME280;56427;51.580;4.656;2024-02-14T12:13:49;101574.47;;;11.65;100.00
69306;BME280;56427;51.580;4.656;2024-02-14T12:16:15;101580.44;;;11.67;100.00
69306;BME280;56427;51.580;4.656;2024-02-14T12:18:41;101575.25;;;11.67;100.00
69306;BME280;56427;51.580;4.656;2024-02-14T12:21:06;101583.56;;;11.75;100.00
69306;BME280;56427;51.580;4.656;2024-02-14T12:23:37;101588.72;;;11.76;100.00
69306;BME280;56427;51.580;4.656;2024-02-14T12:26:03;101593.78;;;11.79;100.00
69306;BME280;56427;51.580;4.656;2024-02-14T12:28:30;101585.06;;;11.82;100.00
69306;BME280;56427;51.580;4.656;2024-02-14T12:30:57;101586.53;;;11.87;100.00
69306;BME280;56427;51.580;4.656;2024-02-14T12:33:26;101583.09;;;11.87;100.00
69306;BME280;56427;51.580;4.656;2024-02-14T12:35:57;101594.16;;;11.92;100.00
69306;BME280;56427;51.580;4.656;2024-02-14T12:38:23;101587.19;;;11.93;100.00
69306;BME280;56427;51.580;4.656;2024-02-14T12:40:49;101584.34;;;11.99;100.00
69306;BME280;56427;51.580;4.656;2024-02-14T12:43:15;101585.00;;;12.04;100.00